Station: Narooma  

  Atmospheric Gas Attenuation - ITU Rec 676-11   ----------------- dB/100km -----------------
Date Time Temp RH % AH g/m3 Dew Point Wind Direction Speed kph Gust kph Barometer mB Rainfall Since 9am 24GHz 47GHz 76GHz 122GHz 134GHz 241GHz
02/09 09:00 19.8 57 9.74 11 7 1013.1 0 21.7 26.0 41.2 108.3 105.3 363.4
01/09 09:00 16.5 64 8.99 9.8 9 1013.1 0 20.3 25.7 40.0 105.0 100.0 344.6
31/08 09:00 12 87 9.27 10 6 1013.1 0 21.1 27.5 43.5 114.3 109.9 378.5
30/08 09:00 12.2 85 9.17 9.8 4 1013.1 0 20.9 27.3 43.0 112.9 108.2 372.6
28/08 09:00 13.5 76 8.89 9.4 0 1013.1 0 20.2 26.4 41.1 108.0 102.6 353.3
27/08 09:00 12 64 6.82 5.5 7 1013.1 0 15.9 23.6 33.6 88.0 77.4 264.7
26/08 09:00 15 78 10 11.3 7 1013.1 6 22.5 27.8 44.9 118.0 115.5 398.6
25/08 09:00 17 81 11.72 13.8 24 1013.1 0.8 26.1 30.1 50.9 134.1 136.1 470.7
24/08 09:00 15.5 68 8.99 9.7 19 1013.1 0 20.3 26.0 40.5 106.3 101.3 349.0
23/08 09:00 15 68 8.72 9.1 6 1013.1 0 19.8 25.7 39.7 104.1 98.4 338.8
22/08 09:00 14.5 58 7.21 6.4 2 1013.1 0 16.6 23.5 34.1 89.1 79.8 273.4
21/08 09:00 17.6 56 8.4 8.7 4 1013.1 0 19.0 24.5 37.2 97.5 91.2 313.8
20/08 09:00 17 70 10.13 11.5 24 1013.1 0 22.7 27.4 44.3 116.4 114.3 394.6
19/08 09:00 12.4 79 8.63 8.8 4 1013.1 0 19.7 26.3 40.6 106.6 100.6 346.0
18/08 09:00 12.5 94 10.34 11.6 7 1013.1 1 23.4 29.2 47.8 125.8 124.2 428.6
17/08 09:00 12 87 9.27 10 7 1013.1 5 21.1 27.5 43.5 114.3 109.9 378.5
16/08 09:00 11.7 99 10.36 11.5 9 1013.1 4 23.5 29.5 48.4 127.3 125.8 434.1
15/08 09:00 15.5 49 6.48 4.9 4 1013.1 0 15.0 22.2 31.0 80.9 70.0 239.0
14/08 09:00 12.6 64 7.08 6 6 1013.1 0 16.4 23.8 34.4 90.0 80.1 274.2
13/08 09:00 10 74 6.96 5.6 6 1013.1 0 16.2 24.3 35.0 91.7 81.2 277.8
12/08 09:00 10 74 6.96 5.6 6 1013.1 0 16.2 24.3 35.0 91.7 81.2 277.8
11/08 09:00 15.5 42 5.55 2.9 2 1013.1 1 13.0 20.8 27.7 72.1 59.1 200.9
10/08 09:00 14 56 6.75 5.5 19 1013.1 3 15.6 22.9 32.5 85.1 74.6 255.1
09/08 09:00 10.9 70 6.96 5.7 17 1013.1 0 16.2 24.1 34.6 90.6 80.3 274.7
08/08 09:00 10 68 6.39 4.4 6 1013.1 0 15.0 23.4 32.8 85.7 73.9 252.0
07/08 09:00 12.1 52 5.58 2.7 7 1013.1 0 13.2 21.7 29.0 75.5 62.0 210.7
06/08 09:00 9.5 74 6.74 5.1 6 1013.1 0.5 15.8 24.1 34.4 89.9 78.9 269.5
05/08 09:00 11 68 6.81 5.3 4 1013.1 15.9 23.8 34.0 89.0 78.3 267.6
04/08 09:00 10.2 66 6.28 4.1 6 1013.1 0 14.8 23.2 32.3 84.4 72.3 246.5
03/08 09:00 12.5 70 7.7 7.3 6 1013.1 0 17.7 24.8 36.8 96.5 88.2 302.4
02/08 09:00 13.7 70 8.29 8.3 9 1013.1 2 18.9 25.4 38.6 101.3 94.4 324.6
01/08 09:00 10 74 6.96 5.6 4 1013.1 0 16.2 24.3 35.0 91.7 81.2 277.8
31/07 09:00 10.5 57 5.53 2.3 6 1013.1 0 13.2 22.0 29.3 76.5 62.7 212.8
30/07 09:00 10.5 59 5.72 2.9 4 1013.1 0 13.6 22.3 30.1 78.4 65.0 221.0
29/07 09:00 14.5 38 4.73 0.3 13 1013.1 0 11.3 19.9 25.2 65.4 50.5 170.4
28/07 09:00 10 90 8.46 8.4 4 1013.1 0 19.5 26.8 41.2 108.1 101.4 348.5
27/07 09:00 9.5 80 7.28 6.3 7 1013.1 0 17.0 25.0 36.5 95.7 86.0 294.4
26/07 09:00 13.5 94 11 12.6 2 1013.1 0 24.8 30.0 50.1 131.8 132.0 455.9
25/07 09:00 12 94 10.02 11 4 1013.1 0 22.7 28.8 46.7 122.9 120.4 415.3
24/07 09:00 11.9 94 9.96 10.9 2 1013.1 0.2 22.6 28.8 46.5 122.3 119.7 412.9
23/07 09:00 12 82 8.74 9 4 1013.1 0 20.0 26.7 41.3 108.4 102.6 353.0
22/07 09:00 16 96 13.08 15.3 4 1013.1 0 29.1 32.9 57.6 152.0 157.7 546.0
21/07 09:00 8 93 7.69 6.9 9 1013.1 0 17.9 26.1 38.9 102.1 93.3 319.8
20/07 09:00 6.5 100 7.5 6.5 6 1013.1 0 17.6 26.2 38.9 101.9 92.5 316.7
19/07 09:00 9 100 8.82 9 6 1013.1 0 20.3 27.7 43.2 113.6 107.8 370.9
18/07 09:00 9 93 8.2 8 6 1013.1 0 19.0 26.6 40.6 106.5 99.1 340.3
17/07 09:00 11 89 8.91 9.2 7 1013.1 0 20.4 27.2 42.5 111.7 106.3 365.8
16/07 09:00 10.2 78 7.42 6.6 11 1013.1 0 17.2 25.0 36.8 96.4 87.1 298.3
15/07 09:00 9.4 73 6.6 4.9 2 1013.1 0 15.5 23.9 33.9 88.6 77.1 263.4
14/07 09:00 14 58 7 6 19 1013.1 0 16.2 23.3 33.5 87.6 77.7 265.9
13/07 09:00 14 56 6.75 5.5 15 1013.1 0 15.6 22.9 32.5 85.1 74.6 255.1
12/07 09:00 14 41 4.95 1.2 13 1013.1 1 11.8 20.3 26.1 67.8 53.3 180.2
11/07 09:00 10 74 6.96 5.6 4 1013.1 2 16.2 24.3 35.0 91.7 81.2 277.8
10/07 09:00 11.5 82 8.47 8.5 6 1013.1 0.6 19.4 26.4 40.4 106.1 99.6 342.4
09/07 09:00 10.5 96 9.31 9.9 1013.1 2 21.3 28.1 44.5 117.0 112.6 387.8
08/07 09:00 10 84 7.9 7.5 7 1013.1 0 18.3 25.8 38.8 101.8 93.7 321.7
07/07 09:00 14 72 8.68 9.1 19 1013.1 0 19.8 26.0 40.0 105.0 99.2 341.3
06/07 09:00 11 75 7.51 6.8 6 1013.1 1 17.4 24.9 36.8 96.3 87.4 299.5
05/07 09:00 13.5 51 5.97 3.5 17 1013.1 0 14.0 21.9 29.9 77.9 65.6 223.4
04/07 09:00 9 80 7.06 5.7 6 1013.1 0 16.5 24.8 35.9 93.9 83.6 286.0
03/07 09:00 15.4 40 5.26 1.8 19 1013.1 0 12.4 20.5 26.7 69.5 55.9 189.5
02/07 09:00 16.5 46 6.46 4.9 15 1013.1 2 14.9 21.9 30.5 79.7 68.9 235.3
01/07 09:00 15.2 74 9.6 10.7 11 1013.1 0 21.7 27.1 43.1 113.3 109.8 378.7
30/06 09:00 14 78 9.41 10.2 9 1013.1 0.1 21.3 27.2 43.0 113.0 109.0 375.5
29/06 09:00 11 93 9.31 10 6 1013.1 5 21.3 27.9 44.2 116.3 111.9 385.3
28/06 09:00 13 71 8.05 7.9 7 1013.1 0 18.5 25.2 38.0 99.6 92.1 316.5
27/06 09:00 11.6 74 7.69 7.2 7 1013.1 2 17.7 25.0 37.2 97.5 89.0 305.5
26/06 09:00 10.4 82 7.9 7.5 0 1013.1 1 18.2 25.7 38.6 101.3 93.3 320.0
25/06 09:00 11 87 8.71 9 4 1013.1 0 20.0 26.9 41.7 109.5 103.5 356.1
24/06 09:00 10.8 73 7.22 6.1 6 1013.1 0 16.8 24.5 35.7 93.5 83.8 286.9
23/06 09:00 10.2 83 7.9 7.5 9 1013.1 0 18.3 25.8 38.7 101.6 93.5 320.8
22/06 09:00 11 75 7.51 6.8 7 1013.1 0 17.4 24.9 36.8 96.3 87.4 299.5
21/06 09:00 13.2 73 8.38 8.6 4 1013.1 0 19.1 25.7 39.2 102.9 96.2 330.8
20/06 09:00 11 81 8.11 7.9 4 1013.1 0.1 18.7 25.9 39.2 102.8 95.4 327.5
19/06 09:00 19 67 10.92 12.8 15 1013.1 0 24.3 28.1 46.3 121.9 121.8 421.0
18/06 09:00 16.4 83 11.58 13.6 2 1013.1 0 25.8 30.1 50.7 133.6 135.2 467.4
17/06 09:00 14.8 80 10.13 11.4 6 1013.1 0 22.8 28.1 45.5 119.7 117.6 405.9
16/06 09:00 12 87 9.27 10 4 1013.1 0 21.1 27.5 43.5 114.3 109.9 378.5
15/06 09:00 13 71 8.05 7.9 4 1013.1 0 18.5 25.2 38.0 99.6 92.1 316.5
14/06 09:00 15 89 11.41 13.2 6 1013.1 1 25.5 30.2 50.9 134.0 135.3 467.5
13/06 09:00 15.2 76 9.86 11.1 17 1013.1 0 22.2 27.5 44.2 116.1 113.3 390.9
12/06 09:00 14 84 10.13 11.4 0 1013.1 0.2 22.9 28.4 46.0 121.0 118.9 410.1
11/06 09:00 17.9 77 11.76 13.9 9 1013.1 3 26.1 29.8 50.5 133.0 135.1 467.2
10/06 09:00 17.2 68 9.96 11.3 24 1013.1 1 22.3 27.1 43.5 114.3 111.8 385.7
09/06 09:00 10.5 91 8.83 9.1 9 1013.1 0 20.2 27.3 42.5 111.5 105.9 364.2
08/06 09:00 11.1 80 8.06 7.8 7 1013.1 0 18.6 25.8 38.9 102.1 94.6 324.7
07/06 09:00 11.2 74 7.5 6.8 7 1013.1 0 17.4 24.9 36.6 96.0 87.0 298.2
06/06 09:00 13 66 7.49 6.8 2 1013.1 0 17.3 24.3 35.8 93.7 84.9 291.1
05/06 09:00 14.9 54 6.88 5.7 17 1013.1 1 15.9 22.9 32.7 85.4 75.3 257.8
04/06 09:00 14.9 39 4.97 1.3 4 1013.1 0 11.8 20.2 25.9 67.3 52.9 179.1
03/06 09:00 16 63 8.58 9 4 1013.1 0 19.4 25.2 38.6 101.4 95.4 328.3
02/06 09:00 14 62 7.48 6.8 28 1013.1 0.3 17.2 24.1 35.3 92.5 83.7 287.0
01/06 09:00 10.5 63 6.11 3.7 6 1013.1 0 14.4 22.9 31.5 82.3 69.9 238.0
31/05 09:00 14 72 8.68 9.1 4 1013.1 0 19.8 26.0 40.0 105.0 99.2 341.3
30/05 09:00 13.5 72 8.42 8.5 4 1013.1 1 19.2 25.7 39.2 102.9 96.4 331.4
29/05 09:00 16 79 10.76 12.4 13 1013.1 2 24.1 28.8 47.5 124.9 124.4 429.8
28/05 09:00 15.6 93 12.37 14.5 7 1013.1 0 27.6 31.7 54.7 144.2 148.0 512.2
27/05 09:00 17 86 12.44 14.6 6 1013.1 33 27.6 31.3 54.0 142.5 146.3 506.4
26/05 09:00 15 99 12.69 14.8 9 1013.1 5 28.3 32.5 56.6 149.2 154.0 532.8
25/05 09:00 16 84 11.44 13.3 4 1013.1 0.1 25.5 30.0 50.4 132.6 133.9 463.0

Last Refresh: 02-Sep-2026 19:14:45

Bureau of Meteorology